Sankoumaru 31 — JD2200 — position and weather

sailwx.info

Track history (hours):
 
Tides and Currents Weather Stations Pressure Air Temp Water Temp Dewpoint Dewpoint Depression Visibility Wind Speed Wind Dir Waves Ship Positions

Sankoumaru 31

Last reported at 2016-Sep-26 20:09 UTC. Time now 2016-Oct-01 03:16 UTC.
Position N 34°53' E 139°47'.

Length 75 m; draft 5 m.

Type: Cargo ship. MMSI: 431501842.

Date/timePositionNaut miles runAvg speedWind from/ knotsBaromVisibWave heightAir tempDewpointWater temp
2016-Sep-26 20:09N 34°53' E 139°47'711.6
2016-Sep-26 19:33N 34°58' E 139°43'24 5.6
2016-Sep-26 15:20N 35°21' E 139°51'0 0.0
2016-Sep-26 13:32N 35°21' E 139°51'0 0.0
2016-Sep-26 11:32N 35°21' E 139°51'0 0.0
2016-Sep-26 01:08N 35°21' E 139°51'0 0.0
2016-Sep-25 09:23N 35°21' E 139°51'0 0.0
2016-Sep-25 04:32N 35°21' E 139°51'0 0.0
2016-Sep-24 22:32N 35°21' E 139°51'0 0.0
2016-Sep-24 19:20N 35°21' E 139°51'0 0.0
2016-Sep-24 18:11N 35°21' E 139°51'0 0.0
2016-Sep-24 17:32N 35°21' E 139°51'0 0.0
2016-Sep-24 16:26N 35°21' E 139°51'0 0.0
2016-Sep-24 14:32N 35°21' E 139°51'0 0.0
2016-Sep-24 12:32N 35°21' E 139°51'0 0.0
2016-Sep-24 10:29N 35°21' E 139°51'0 0.0
2016-Sep-24 09:29N 35°21' E 139°51'0 0.0
2016-Sep-24 03:17N 35°21' E 139°51'0 0.0
2016-Sep-24 02:26N 35°21' E 139°51'0 0.0
2016-Sep-24 01:20N 35°21' E 139°51'0 0.0
2016-Sep-24 00:20N 35°21' E 139°51'0 0.0
2016-Sep-23 19:32N 35°21' E 139°51'0 0.0
2016-Sep-23 17:32N 35°21' E 139°51'0 0.0
2016-Sep-23 16:32N 35°21' E 139°51'0 0.0
2016-Sep-23 15:29N 35°21' E 139°51'0 0.0
2016-Sep-23 13:32N 35°21' E 139°51'0 0.1
2016-Sep-23 06:32N 35°22' E 139°51'1 0.7
2016-Sep-23 04:34N 35°22' E 139°49'0 0.2
2016-Sep-23 03:33N 35°22' E 139°49'0 0.0
2016-Sep-23 02:33N 35°22' E 139°49'6 6.2
2016-Sep-23 01:33N 35°16' E 139°46'237 7.9
2016-Sep-21 19:30N 34°15' E 135°07'0 0.0
2016-Sep-21 16:33N 34°15' E 135°07'28 4.0
2016-Sep-21 09:24N 34°42' E 135°16'0 0.0
2016-Sep-21 08:30N 34°42' E 135°16'9 1.9
2016-Sep-21 03:33N 34°39' E 135°27'0 0.0
2016-Sep-21 02:33N 34°39' E 135°27'0 0.1
2016-Sep-20 17:24N 34°39' E 135°28'0 0.0
2016-Sep-20 14:30N 34°39' E 135°28'0 0.0
2016-Sep-20 13:30N 34°39' E 135°28'0 0.0
2016-Sep-20 10:30N 34°39' E 135°28'0 0.0
2016-Sep-20 08:24N 34°39' E 135°28'0 0.0
2016-Sep-20 02:24N 34°39' E 135°28'0 0.0
2016-Sep-19 23:12N 34°39' E 135°28'0 0.0
2016-Sep-19 07:24N 34°39' E 135°28'0 0.0
2016-Sep-19 06:33N 34°39' E 135°28'0 0.0
2016-Sep-19 03:15N 34°39' E 135°28'0 0.0
2016-Sep-19 02:21N 34°39' E 135°28'0 0.0
2016-Sep-19 00:15N 34°39' E 135°28'1 0.2
2016-Sep-18 19:30N 34°38' E 135°27'18 4.5
2016-Sep-18 15:33N 34°35' E 135°06'  
Track history (hours):
 
Tides and Currents Weather Stations Pressure Air Temp Water Temp Dewpoint Dewpoint Depression Visibility Wind Speed Wind Dir Waves Ship Positions

Sankoumaru 31

Last reported at 2016-Sep-26 20:09 UTC. Time now 2016-Oct-01 03:16 UTC.
Position N 34°53' E 139°47'.

Length 75 m; draft 5 m.

Type: Cargo ship. MMSI: 431501842.

Date/timePositionNaut miles runAvg speedWind from/ knotsBaromVisibWave heightAir tempDewpointWater temp
2016-Sep-26 20:09N 34°53' E 139°47'711.6
2016-Sep-26 19:33N 34°58' E 139°43'24 5.6
2016-Sep-26 15:20N 35°21' E 139°51'0 0.0
2016-Sep-26 13:32N 35°21' E 139°51'0 0.0
2016-Sep-26 11:32N 35°21' E 139°51'0 0.0
2016-Sep-26 01:08N 35°21' E 139°51'0 0.0
2016-Sep-25 09:23N 35°21' E 139°51'0 0.0
2016-Sep-25 04:32N 35°21' E 139°51'0 0.0
2016-Sep-24 22:32N 35°21' E 139°51'0 0.0
2016-Sep-24 19:20N 35°21' E 139°51'0 0.0
2016-Sep-24 18:11N 35°21' E 139°51'0 0.0
2016-Sep-24 17:32N 35°21' E 139°51'0 0.0
2016-Sep-24 16:26N 35°21' E 139°51'0 0.0
2016-Sep-24 14:32N 35°21' E 139°51'0 0.0
2016-Sep-24 12:32N 35°21' E 139°51'0 0.0
2016-Sep-24 10:29N 35°21' E 139°51'0 0.0
2016-Sep-24 09:29N 35°21' E 139°51'0 0.0
2016-Sep-24 03:17N 35°21' E 139°51'0 0.0
2016-Sep-24 02:26N 35°21' E 139°51'0 0.0
2016-Sep-24 01:20N 35°21' E 139°51'0 0.0
2016-Sep-24 00:20N 35°21' E 139°51'0 0.0
2016-Sep-23 19:32N 35°21' E 139°51'0 0.0
2016-Sep-23 17:32N 35°21' E 139°51'0 0.0
2016-Sep-23 16:32N 35°21' E 139°51'0 0.0
2016-Sep-23 15:29N 35°21' E 139°51'0 0.0
2016-Sep-23 13:32N 35°21' E 139°51'0 0.1
2016-Sep-23 06:32N 35°22' E 139°51'1 0.7
2016-Sep-23 04:34N 35°22' E 139°49'0 0.2
2016-Sep-23 03:33N 35°22' E 139°49'0 0.0
2016-Sep-23 02:33N 35°22' E 139°49'6 6.2
2016-Sep-23 01:33N 35°16' E 139°46'237 7.9
2016-Sep-21 19:30N 34°15' E 135°07'0 0.0
2016-Sep-21 16:33N 34°15' E 135°07'28 4.0
2016-Sep-21 09:24N 34°42' E 135°16'0 0.0
2016-Sep-21 08:30N 34°42' E 135°16'9 1.9
2016-Sep-21 03:33N 34°39' E 135°27'0 0.0
2016-Sep-21 02:33N 34°39' E 135°27'0 0.1
2016-Sep-20 17:24N 34°39' E 135°28'0 0.0
2016-Sep-20 14:30N 34°39' E 135°28'0 0.0
2016-Sep-20 13:30N 34°39' E 135°28'0 0.0
2016-Sep-20 10:30N 34°39' E 135°28'0 0.0
2016-Sep-20 08:24N 34°39' E 135°28'0 0.0
2016-Sep-20 02:24N 34°39' E 135°28'0 0.0
2016-Sep-19 23:12N 34°39' E 135°28'0 0.0
2016-Sep-19 07:24N 34°39' E 135°28'0 0.0
2016-Sep-19 06:33N 34°39' E 135°28'0 0.0
2016-Sep-19 03:15N 34°39' E 135°28'0 0.0
2016-Sep-19 02:21N 34°39' E 135°28'0 0.0
2016-Sep-19 00:15N 34°39' E 135°28'1 0.2
2016-Sep-18 19:30N 34°38' E 135°27'18 4.5
2016-Sep-18 15:33N 34°35' E 135°06'  

Dump ship's entire track history